Latest Weather Observations for Warrnambool

IDV60801

Issued at 7:02 pm EST Saturday 30 April 2016 (issued every 30 minutes, with the page automatically refreshed every 10 minutes)

About weather observations | Map of weather stations | Latest weather observations for VIC | Other Formats
Station Details ID: 090186 Name: WARRNAMBOOL AIRPORT NDB Lat: -38.29 Lon: 142.45 Height: 70.8 m
Data from the previous 72 hours. | See also: Recent months at Warrnambool
Date/Time
EST
Temp
°C
App
Temp
°C
Dew
Point
Rel
Hum
%
Delta-T
°C
Wind Press
QNH
hPa
Press
MSL
hPa
Rain
since 9 am
mm
Dir
 
Spd
km/h
Gust
km/h
Spd
kts
Gust
kts
30/07:00pm 14.9 12.2 9.1 68 3.0 N 13 15 7 8 1006.8 1006.8 0.0
30/06:30pm 15.2 12.9 9.1 67 3.1 N 11 15 6 8 1006.8 1006.8 0.0
30/06:00pm 16.4 14.1 8.9 61 3.9 N 11 15 6 8 1006.6 1006.5 0.0
30/05:30pm 19.0 15.5 8.9 52 5.3 N 17 20 9 11 1006.8 1006.8 0.0
30/05:00pm 21.5 16.6 8.4 43 6.9 NNW 24 35 13 19 1007.2 1007.2 0.0
30/04:30pm 22.3 18.0 9.5 44 6.9 NNW 22 35 12 19 1007.4 1007.4 0.0
30/04:00pm 22.8 16.9 8.9 41 7.5 NNW 30 39 16 21 1007.7 1007.7 0.0
30/03:30pm 22.9 15.7 9.0 41 7.5 NNW 37 46 20 25 1007.6 1007.6 0.0
30/03:00pm 23.1 16.4 9.5 42 7.4 NNW 35 43 19 23 1008.0 1008.0 0.0
30/02:30pm 22.7 16.3 9.5 43 7.1 NNW 33 46 18 25 1008.4 1008.4 0.0
30/02:00pm 22.8 16.4 9.2 42 7.3 NNW 33 50 18 27 1008.9 1008.9 0.0
30/01:31pm 22.5 16.3 9.3 43 7.1 NW 32 50 17 27 1009.1 1009.1 0.0
30/01:30pm 22.9 17.1 10.7 46 6.8 NW 32 44 17 24 1009.1 1009.1 0.0
30/01:00pm 22.4 16.1 10.9 48 6.4 NNW 35 46 19 25 1009.9 1009.9 0.0
30/12:30pm 21.8 16.8 12.1 54 5.5 NW 30 41 16 22 1010.2 1010.2 0.0
30/12:00pm 21.2 15.3 12.3 57 5.0 NW 35 46 19 25 1010.5 1010.5 0.0
30/11:30am 20.9 15.7 13.4 62 4.3 NNW 33 43 18 23 1010.8 1010.8 0.0
30/11:00am 20.2 15.4 14.6 70 3.3 NNW 33 50 18 27 1011.1 1011.1 0.0
30/10:30am 19.7 15.3 15.1 75 2.7 NNW 32 41 17 22 1011.2 1011.2 0.0
30/10:00am 19.3 16.8 16.2 82 1.9 N 24 33 13 18 1011.5 1011.5 0.0
30/09:30am 18.0 15.7 15.6 86 1.4 N 22 30 12 16 1011.7 1011.7 0.0
30/09:00am 17.0 14.9 15.2 89 1.0 N 20 26 11 14 1012.0 1012.0 5.6
30/08:30am 15.6 13.2 14.3 92 0.7 N 20 24 11 13 1012.0 1012.0 5.6
30/08:00am 14.8 12.2 13.8 94 0.6 N 20 26 11 14 1011.9 1011.9 5.6
30/07:30am 14.6 12.1 14.0 96 0.3 N 20 28 11 15 1011.6 1011.6 5.6
30/07:00am 14.1 11.1 13.6 97 0.3 N 22 28 12 15 1011.5 1011.5 5.6
30/06:30am 14.0 11.6 13.7 98 0.2 N 19 24 10 13 1011.3 1011.3 5.6
30/06:00am 13.4 11.2 13.2 99 0.1 N 17 20 9 11 1011.2 1011.2 5.6
30/05:30am 13.0 11.0 12.8 99 0.1 N 15 19 8 10 1011.2 1011.2 5.6
30/05:00am 13.1 10.8 12.9 99 0.1 N 17 19 9 10 1011.3 1011.3 5.2
30/04:30am 12.1 10.1 11.6 97 0.3 N 13 17 7 9 1011.2 1011.2 5.2
30/04:00am 13.3 10.9 12.5 95 0.4 N 17 20 9 11 1011.2 1011.2 5.2
30/03:30am 14.1 11.4 13.5 96 0.3 N 20 26 11 14 1011.0 1011.0 5.2
30/03:00am 12.5 10.7 12.2 98 0.2 N 13 17 7 9 1011.3 1011.3 5.2
30/02:30am 12.2 9.6 11.9 98 0.2 N 17 17 9 9 1011.4 1011.4 5.2
30/02:00am 12.0 10.0 11.5 97 0.3 N 13 15 7 8 1011.7 1011.7 5.2
30/01:30am 12.4 10.1 11.9 97 0.3 N 15 17 8 9 1011.7 1011.7 5.2
30/01:00am 12.6 10.5 12.3 98 0.2 N 15 17 8 9 1011.9 1011.9 5.2
30/12:30am 12.5 10.7 12.0 97 0.3 N 13 17 7 9 1012.0 1012.0 5.2
30/12:00am 12.6 10.4 12.1 97 0.3 N 15 17 8 9 1012.1 1012.1 5.2
 
Date/Time
EST
Temp
°C
App
Temp
°C
Dew
Point
Rel
Hum
%
Delta-T
°C
Wind Press
QNH
hPa
Press
MSL
hPa
Rain
since 9 am
mm
Dir
 
Spd
km/h
Gust
km/h
Spd
kts
Gust
kts
29/11:30pm 12.3 10.0 11.8 97 0.3 NNE 15 17 8 9 1012.4 1012.4 5.2
29/11:00pm 12.5 10.2 11.9 96 0.3 NNE 15 17 8 9 1013.0 1012.9 5.2
29/10:30pm 13.0 10.8 12.1 94 0.5 N 15 17 8 9 1013.1 1013.0 5.2
29/10:00pm 13.5 10.6 12.4 93 0.6 N 19 22 10 12 1013.1 1013.0 5.2
29/09:30pm 13.3 10.6 12.8 97 0.3 N 19 22 10 12 1012.9 1012.8 5.2
29/09:00pm 13.5 11.3 13.2 98 0.2 N 17 19 9 10 1012.7 1012.7 5.2
29/08:30pm 13.5 11.6 13.0 97 0.3 N 15 19 8 10 1012.6 1012.6 5.2
29/08:00pm 13.7 11.8 13.1 96 0.3 N 15 17 8 9 1012.5 1012.5 5.2
29/07:30pm 14.4 12.7 13.6 95 0.4 N 15 19 8 10 1012.4 1012.4 5.2
29/07:00pm 14.6 13.4 14.0 96 0.3 N 13 17 7 9 1012.3 1012.3 5.2
29/06:30pm 14.8 13.2 14.0 95 0.5 N 15 20 8 11 1012.2 1012.2 5.2
29/06:00pm 15.4 13.6 14.4 94 0.6 N 17 22 9 12 1011.8 1011.8 5.2
29/05:30pm 15.9 14.2 14.6 92 0.7 N 17 20 9 11 1011.6 1011.6 5.2
29/05:00pm 16.2 14.6 14.9 92 0.8 N 17 20 9 11 1011.5 1011.5 5.2
29/04:30pm 16.4 14.4 14.9 91 0.9 NNW 19 22 10 12 1011.5 1011.5 5.2
29/04:00pm 16.6 14.6 15.0 90 0.9 N 19 24 10 13 1011.3 1011.3 5.2
29/03:30pm 16.3 14.1 14.8 91 0.9 NNW 20 26 11 14 1011.3 1011.3 5.2
29/03:00pm 15.7 13.0 14.6 93 0.6 NNW 22 32 12 17 1010.9 1010.9 5.2
29/02:30pm 15.2 11.6 14.2 94 0.6 NNW 26 35 14 19 1011.0 1011.0 5.0
29/02:00pm 15.2 11.9 14.1 93 0.6 NNW 24 33 13 18 1010.8 1010.8 4.0
29/01:30pm 15.7 13.4 14.6 93 0.6 NNW 20 30 11 16 1011.0 1011.0 2.4
29/01:05pm 15.5 12.0 14.4 93 0.6 NNW 26 33 14 18 1011.3 1011.3 2.2
29/01:02pm 15.4 11.8 14.3 93 0.6 NNW 26 37 14 20 1011.2 1011.2 2.2
29/01:00pm 15.4 11.4 14.1 92 0.7 NW 28 39 15 21 1011.3 1011.3 2.2
29/12:48pm 15.9 12.9 14.9 94 0.6 NW 24 32 13 17 1011.5 1011.5 1.8
29/12:42pm 16.1 12.7 14.8 92 0.7 NNW 26 33 14 18 1011.6 1011.6 1.6
29/12:30pm 16.4 12.6 14.6 89 1.0 NNW 28 41 15 22 1011.5 1011.5 0.6
29/12:00pm 16.9 12.6 14.5 86 1.4 NNW 30 43 16 23 1011.6 1011.6 0.2
29/11:30am 16.9 12.6 14.5 86 1.4 N 30 39 16 21 1011.8 1011.8 0.0
29/11:00am 17.1 13.5 14.2 83 1.7 N 26 35 14 19 1011.9 1011.9 0.0
29/10:30am 16.9 12.4 13.8 82 1.8 N 30 41 16 22 1012.2 1012.2 0.0
29/10:00am 16.9 13.6 14.0 83 1.7 N 24 32 13 17 1012.5 1012.5 0.0
29/09:30am 17.1 13.2 13.2 78 2.2 N 26 33 14 18 1012.5 1012.5 0.0
29/09:00am 17.1 13.7 12.6 75 2.5 N 22 28 12 15 1012.4 1012.4 2.4
29/08:30am 17.7 13.7 11.9 69 3.2 NNW 24 33 13 18 1012.0 1012.0 2.4
29/08:00am 17.3 13.3 11.8 70 3.0 N 24 33 13 18 1012.0 1012.0 2.4
29/07:30am 17.7 13.2 11.5 67 3.4 NNW 26 35 14 19 1012.3 1012.3 2.4
29/07:00am 17.9 13.7 11.2 65 3.6 NNW 24 33 13 18 1012.2 1012.2 2.4
29/06:30am 18.3 13.0 11.1 63 3.9 NNW 30 43 16 23 1012.5 1012.5 2.4
29/06:00am 17.7 13.7 11.9 69 3.2 NNW 24 32 13 17 1012.4 1012.4 2.4
29/05:30am 16.8 12.5 12.1 74 2.6 NNW 26 37 14 20 1013.0 1012.9 2.4
29/05:24am 17.0 12.3 12.1 73 2.7 NW 28 39 15 21 1013.1 1013.0 2.4
29/05:00am 17.1 14.9 12.0 72 2.8 N 15 20 8 11 1011.6 1011.6 1.8
29/04:30am 17.3 13.8 12.2 72 2.8 NNE 22 28 12 15 1011.1 1011.1 1.8
29/04:00am 16.0 13.0 12.6 80 1.9 NNE 20 26 11 14 1011.5 1011.5 1.8
29/03:30am 15.3 12.6 13.0 86 1.3 NE 19 24 10 13 1012.0 1012.0 1.8
29/03:00am 14.5 13.0 13.2 92 0.7 NE 13 20 7 11 1012.3 1012.3 1.8
29/02:30am 14.1 13.1 13.3 95 0.4 ENE 11 17 6 9 1013.0 1012.9 1.8
29/02:00am 13.9 12.5 13.3 96 0.3 ENE 13 17 7 9 1013.6 1013.5 1.8
29/01:30am 13.9 13.2 13.3 96 0.3 N 9 11 5 6 1014.5 1014.4 1.4
29/01:00am 13.7 13.3 12.9 95 0.4 N 7 13 4 7 1014.7 1014.6 0.8
29/12:30am 13.6 13.1 12.8 95 0.4 W 7 17 4 9 1014.6 1014.5 0.8
29/12:00am 13.7 13.2 12.8 94 0.5 NE 7 9 4 5 1014.5 1014.4 0.8
 
Date/Time
EST
Temp
°C
App
Temp
°C
Dew
Point
Rel
Hum
%
Delta-T
°C
Wind Press
QNH
hPa
Press
MSL
hPa
Rain
since 9 am
mm
Dir
 
Spd
km/h
Gust
km/h
Spd
kts
Gust
kts
28/11:30pm 13.6 12.7 12.7 94 0.5 ENE 9 13 5 7 1014.7 1014.6 0.4
28/11:00pm 13.2 12.2 12.3 94 0.5 E 9 11 5 6 1015.1 1015.0 0.4
28/10:30pm 13.4 12.9 12.5 94 0.5 SE 7 9 4 5 1015.7 1015.6 0.4
28/10:00pm 13.9 13.4 12.8 93 0.6 SW 7 9 4 5 1016.5 1016.4 0.4
28/09:30pm 14.3 12.7 12.9 91 0.8 W 13 17 7 9 1016.8 1016.7 0.4
28/09:00pm 14.4 13.4 12.3 87 1.1 E 9 11 5 6 1015.8 1015.7 0.4
28/08:30pm 14.6 14.1 12.5 87 1.1 ENE 7 13 4 7 1015.7 1015.6 0.4
28/08:00pm 14.7 13.5 12.7 88 1.1 E 11 13 6 7 1015.7 1015.6 0.4
28/07:30pm 14.8 14.5 13.2 90 0.9 ESE 7 7 4 4 1016.2 1016.1 0.4
28/07:00pm 14.8 14.5 13.2 90 0.9 ENE 7 13 4 7 1016.3 1016.2 0.4
28/06:30pm 14.4 14.8 12.6 89 1.0 E 2 6 1 3 1016.2 1016.1 0.4
28/06:00pm 15.0 14.2 12.9 87 1.2 ESE 9 11 5 6 1015.9 1015.8 0.4
28/05:30pm 15.3 15.0 12.8 85 1.4 E 6 9 3 5 1016.1 1016.0 0.4
28/05:00pm 15.5 14.8 13.2 86 1.3 S 9 11 5 6 1016.3 1016.2 0.4
28/04:30pm 16.1 15.3 12.8 81 1.8 S 9 13 5 7 1016.7 1016.6 0.2
28/04:00pm 16.8 16.4 12.9 78 2.2 S 7 11 4 6 1016.5 1016.4 0.2
28/03:30pm 17.0 15.6 13.5 80 2.0 SW 13 15 7 8 1016.9 1016.8 0.2
28/03:00pm 16.9 14.6 13.0 78 2.2 SW 17 20 9 11 1016.7 1016.6 0.2
28/02:30pm 17.7 15.1 11.9 69 3.2 SSW 17 19 9 10 1016.2 1016.1 0.2
28/02:00pm 17.9 15.4 12.4 70 3.1 SSW 17 20 9 11 1016.7 1016.6 0.2
28/01:30pm 17.8 15.0 12.7 72 2.9 SSW 19 24 10 13 1016.7 1016.6 0.2
28/01:00pm 19.4 17.8 13.8 70 3.2 WSW 15 19 8 10 1017.0 1016.9 0.2
28/12:30pm 18.6 17.1 13.2 71 3.1 WSW 13 17 7 9 1017.2 1017.1 0.0
28/12:00pm 18.8 17.0 13.4 71 3.1 NW 15 20 8 11 1017.6 1017.5 0.0
28/11:30am 17.9 15.4 13.4 75 2.6 W 19 22 10 12 1017.9 1017.8 0.0
28/11:00am 18.1 16.9 14.0 77 2.3 WNW 13 20 7 11 1017.9 1017.8 0.0
28/10:30am 18.2 16.4 14.5 79 2.1 WNW 17 22 9 12 1017.8 1017.7 0.0
28/10:00am 17.5 16.1 14.6 83 1.7 WNW 15 20 8 11 1017.7 1017.6 0.0
28/09:30am 17.3 16.2 15.3 88 1.2 W 15 19 8 10 1017.7 1017.6 0.0
28/09:23am 17.5 16.5 15.5 88 1.2 W 15 19 8 10 1017.6 1017.5 0.0
28/09:00am 16.8 15.4 14.6 87 1.3 W 15 17 8 9 1017.6 1017.5 0.2
28/08:52am 16.6 15.5 14.2 86 1.4 W 13 17 7 9 1017.6 1017.5 0.2
28/08:30am 15.6 14.9 13.1 85 1.4 WNW 9 15 5 8 1017.3 1017.2 0.2
28/08:00am 14.7 13.7 12.4 86 1.3 NW 9 11 5 6 1017.0 1016.9 0.2
28/07:30am 14.5 13.5 12.2 86 1.3 NW 9 11 5 6 1016.5 1016.4 0.2
28/07:00am 14.3 12.9 12.3 88 1.1 N 11 13 6 7 1016.0 1015.9 0.2
28/06:30am 15.2 13.2 11.6 79 1.9 NW 13 17 7 9 1015.7 1015.6 0.0
28/06:00am 15.4 14.4 11.0 75 2.3 NW 7 9 4 5 1015.5 1015.4 0.0
28/05:30am 16.1 14.6 10.6 70 2.9 WNW 9 13 5 7 1015.0 1014.9 0.0
28/05:00am 16.4 13.6 10.0 66 3.4 W 15 17 8 9 1015.0 1014.9 0.0
28/04:30am 16.4 13.4 9.3 63 3.7 W 15 17 8 9 1014.4 1014.3 0.0
28/04:00am 16.2 14.1 9.6 65 3.4 W 11 15 6 8 1013.9 1013.8 0.0
28/03:30am 17.0 14.5 8.2 56 4.5 NW 11 13 6 7 1013.6 1013.5 0.0
28/03:00am 18.6 15.6 9.1 54 5.0 NNW 15 20 8 11 1013.8 1013.7 0.0
28/02:30am 17.9 15.3 9.5 58 4.4 NNW 13 15 7 8 1013.8 1013.7 0.0
28/02:00am 18.5 16.3 9.3 55 4.8 NW 11 19 6 10 1013.8 1013.7 0.0
28/01:30am 17.6 15.2 10.2 62 3.9 N 13 20 7 11 1014.3 1014.2 0.0
28/01:00am 16.1 16.9 12.5 79 2.0 CALM 0 0 0 0 1013.9 1013.8 0.0
28/12:30am 16.9 17.1 11.8 72 2.8 NE 2 7 1 4 1013.8 1013.7 0.0
28/12:00am 16.3 15.4 12.5 78 2.1 ENE 9 13 5 7 1013.8 1013.7 0.0
 
Date/Time
EST
Temp
°C
App
Temp
°C
Dew
Point
Rel
Hum
%
Delta-T
°C
Wind Press
QNH
hPa
Press
MSL
hPa
Rain
since 9 am
mm
Dir
 
Spd
km/h
Gust
km/h
Spd
kts
Gust
kts
27/11:30pm 16.4 16.6 12.0 75 2.4 ENE 2 6 1 3 1014.0 1013.9 0.0
27/11:00pm 16.4 15.5 12.6 78 2.1 SSE 9 13 5 7 1014.2 1014.1 0.0
27/10:30pm 16.6 13.7 11.1 70 3.0 SSW 17 20 9 11 1014.1 1014.0 0.0
27/10:00pm 16.8 14.1 7.4 54 4.7 WNW 11 20 6 11 1014.0 1013.9 0.0
27/09:30pm 20.1 17.1 7.5 44 6.5 N 13 17 7 9 1013.7 1013.6 0.0
27/09:00pm 20.9 18.2 7.5 42 6.9 N 11 17 6 9 1013.7 1013.6 0.0
27/08:30pm 21.4 18.2 6.9 39 7.4 N 13 19 7 10 1013.7 1013.6 0.0
27/08:00pm 22.0 18.4 6.7 37 7.8 N 15 20 8 11 1013.5 1013.4 0.0
27/07:30pm 22.6 18.5 6.4 35 8.3 NNW 17 20 9 11 1013.7 1013.6 0.0

Other Formats:

Comma delimited format used in spreadsheet applications
http://www.bom.gov.au/fwo/IDV60801/IDV60801.94837.axf

JavaScript Object Notation format (JSON) in row-major order
http://www.bom.gov.au/fwo/IDV60801/IDV60801.94837.json